Time;durP1;ratioP1;P1;durP2;ratioP2;P2;SDS_P1;SDS_P2;PMS_P1;PMS_P2;Temp;Humidity;BMP_temperature;BMP_pressure;BME280_temperature;BME280_humidity;BME280_pressure;Samples;Min_cycle;Max_cycle;Signal;HPM_P1;HPM_P2
2022/08/30 00:01:01;;;;;;;4.15;1.40;;;;;;;;;;5033269;28;20106;-65
2022/08/30 00:01:55;;;;;;;2.38;1.10;;;;;;;;;;5032956;28;20086;-72
2022/08/30 00:04:21;;;;;;;2.03;1.10;;;;;;;;;;5033066;28;20528;-65
2022/08/30 00:06:46;;;;;;;3.65;1.40;;;;;;;;;;5033035;28;20550;-65
2022/08/30 00:09:12;;;;;;;2.33;1.10;;;;;;;;;;5032734;28;20021;-68
2022/08/30 00:11:37;;;;;;;1.95;1.00;;;;;;;;;;5032974;28;20025;-67
2022/08/30 00:14:03;;;;;;;2.35;0.90;;;;;;;;;;5032819;28;20112;-72
2022/08/30 00:16:28;;;;;;;2.80;0.95;;;;;;;;;;5032832;28;20033;-65
2022/08/30 00:18:55;;;;;;;2.35;1.00;;;;;;;;;;5032813;28;20025;-72
2022/08/30 00:21:21;;;;;;;1.30;0.80;;;;;;;;;;5032673;28;20056;-70
2022/08/30 00:23:47;;;;;;;1.60;0.90;;;;;;;;;;5032391;28;20061;-72
2022/08/30 00:26:12;;;;;;;1.10;0.77;;;;;;;;;;5032740;28;20084;-70
2022/08/30 00:28:38;;;;;;;1.30;0.80;;;;;;;;;;5032567;28;20056;-68
2022/08/30 00:31:05;;;;;;;3.58;0.93;;;;;;;;;;5032715;28;20099;-69
2022/08/30 00:33:30;;;;;;;1.95;0.80;;;;;;;;;;5032491;28;20156;-65
2022/08/30 00:35:56;;;;;;;3.08;0.77;;;;;;;;;;5032774;28;20029;-65
2022/08/30 00:38:23;;;;;;;1.85;0.68;;;;;;;;;;5032455;28;20025;-65
2022/08/30 00:40:48;;;;;;;1.20;0.60;;;;;;;;;;5033374;28;20041;-69
2022/08/30 00:43:22;;;;;;;3.70;0.90;;;;;;;;;;5044320;28;20045;-66
2022/08/30 00:45:48;;;;;;;1.73;0.80;;;;;;;;;;5056541;28;20084;-69
2022/08/30 00:48:13;;;;;;;0.98;0.63;;;;;;;;;;5056527;28;20028;-67
2022/08/30 00:50:43;;;;;;;1.42;0.80;;;;;;;;;;5056494;28;20380;-65
2022/08/30 00:53:16;;;;;;;1.67;0.90;;;;;;;;;;5056173;28;20163;-65
2022/08/30 00:55:42;;;;;;;1.30;0.70;;;;;;;;;;5056425;28;20104;-67
2022/08/30 00:58:12;;;;;;;0.93;0.60;;;;;;;;;;5056371;28;20031;-65
2022/08/30 01:00:37;;;;;;;4.10;1.15;;;;;;;;;;5056366;28;20017;-70
2022/08/30 01:03:03;;;;;;;2.35;0.80;;;;;;;;;;5055957;28;20029;-67
2022/08/30 01:05:29;;;;;;;1.88;0.90;;;;;;;;;;5056190;28;20472;-66
2022/08/30 01:07:54;;;;;;;1.67;0.60;;;;;;;;;;5055980;28;20052;-66
2022/08/30 01:10:21;;;;;;;1.48;0.70;;;;;;;;;;5056149;28;20033;-72
2022/08/30 01:12:47;;;;;;;1.40;0.90;;;;;;;;;;5056047;28;20029;-64
2022/08/30 01:15:14;;;;;;;1.02;0.70;;;;;;;;;;5055873;28;20468;-69
2022/08/30 01:17:42;;;;;;;2.60;1.05;;;;;;;;;;5055893;28;20103;-65
2022/08/30 01:20:11;;;;;;;2.67;0.88;;;;;;;;;;5055946;28;20027;-65
2022/08/30 01:22:48;;;;;;;1.25;0.80;;;;;;;;;;5055494;28;20116;-66
2022/08/30 01:25:25;;;;;;;2.17;0.80;;;;;;;;;;5055884;28;20037;-67
2022/08/30 01:28:05;;;;;;;0.70;0.60;;;;;;;;;;5055815;28;20032;-68
2022/08/30 01:30:31;;;;;;;2.03;0.93;;;;;;;;;;5055678;28;20023;-71
2022/08/30 01:33:00;;;;;;;8.55;1.10;;;;;;;;;;5055619;28;20060;-69
2022/08/30 01:35:33;;;;;;;1.77;0.93;;;;;;;;;;5054480;28;20021;-67
2022/08/30 01:37:58;;;;;;;2.08;1.10;;;;;;;;;;5055372;28;20258;-65
2022/08/30 01:40:24;;;;;;;3.55;1.27;;;;;;;;;;5055570;28;20025;-72
2022/08/30 01:42:49;;;;;;;4.20;1.23;;;;;;;;;;5055216;28;20048;-70
2022/08/30 01:45:15;;;;;;;1.88;0.90;;;;;;;;;;5055373;28;20035;-71
2022/08/30 01:47:41;;;;;;;2.38;0.90;;;;;;;;;;5055340;28;20150;-68
2022/08/30 01:50:07;;;;;;;2.00;0.80;;;;;;;;;;5055196;28;20025;-69
2022/08/30 01:52:33;;;;;;;1.92;0.90;;;;;;;;;;5054871;28;20027;-71
2022/08/30 01:54:59;;;;;;;0.90;0.75;;;;;;;;;;5055110;28;20033;-69
2022/08/30 01:57:25;;;;;;;3.45;0.80;;;;;;;;;;5055195;28;20037;-66
2022/08/30 01:59:51;;;;;;;1.65;0.70;;;;;;;;;;5054982;28;20017;-69
2022/08/30 02:02:21;;;;;;;4.10;0.80;;;;;;;;;;5054996;28;20029;-73
2022/08/30 02:04:48;;;;;;;0.93;0.65;;;;;;;;;;5054899;28;20029;-65
2022/08/30 02:07:14;;;;;;;1.27;0.77;;;;;;;;;;5054943;28;20021;-66
2022/08/30 02:09:40;;;;;;;1.50;0.75;;;;;;;;;;5054967;28;20064;-72
2022/08/30 02:12:06;;;;;;;1.65;0.70;;;;;;;;;;5054856;28;20057;-68
2022/08/30 02:14:36;;;;;;;3.25;0.60;;;;;;;;;;5054761;28;20028;-68
2022/08/30 02:17:04;;;;;;;2.63;0.90;;;;;;;;;;5054773;28;20032;-71
2022/08/30 02:19:29;;;;;;;1.75;0.70;;;;;;;;;;5054559;28;20391;-67
2022/08/30 02:21:55;;;;;;;2.63;1.08;;;;;;;;;;5054771;28;20024;-66
2022/08/30 02:24:21;;;;;;;3.60;0.80;;;;;;;;;;5054470;28;20400;-65
2022/08/30 02:26:47;;;;;;;4.35;0.80;;;;;;;;;;5054704;28;20103;-65
2022/08/30 02:29:13;;;;;;;1.45;0.82;;;;;;;;;;5054650;28;20044;-65
2022/08/30 02:31:39;;;;;;;2.10;0.68;;;;;;;;;;5054512;28;20360;-68
2022/08/30 02:34:04;;;;;;;1.67;0.70;;;;;;;;;;5054324;28;20087;-67
2022/08/30 02:36:30;;;;;;;2.97;0.93;;;;;;;;;;5054473;28;20504;-67
2022/08/30 02:38:55;;;;;;;4.22;0.93;;;;;;;;;;5054434;28;20134;-72
2022/08/30 02:41:22;;;;;;;2.10;1.00;;;;;;;;;;5054152;28;20195;-65
2022/08/30 02:43:48;;;;;;;1.92;0.80;;;;;;;;;;5053940;28;20116;-70
2022/08/30 02:46:14;;;;;;;3.15;0.80;;;;;;;;;;5054265;28;20025;-66
2022/08/30 02:48:40;;;;;;;2.20;1.30;;;;;;;;;;5053979;28;20049;-69
2022/08/30 02:51:10;;;;;;;1.67;1.30;;;;;;;;;;5054168;28;20390;-71
2022/08/30 02:53:35;;;;;;;3.70;1.67;;;;;;;;;;5054120;28;20017;-68
2022/08/30 02:56:01;;;;;;;2.00;1.42;;;;;;;;;;5054007;28;20385;-67
2022/08/30 02:58:27;;;;;;;4.05;1.48;;;;;;;;;;5053965;28;20391;-65
2022/08/30 03:00:52;;;;;;;5.03;1.50;;;;;;;;;;5052789;28;20056;-72
2022/08/30 03:03:18;;;;;;;2.75;1.38;;;;;;;;;;5052988;28;20040;-69
2022/08/30 03:05:44;;;;;;;5.00;1.63;;;;;;;;;;5053893;28;20132;-72
2022/08/30 03:08:10;;;;;;;4.20;2.90;;;;;;;;;;5053852;28;20025;-71
2022/08/30 03:10:37;;;;;;;4.40;1.02;;;;;;;;;;5053721;28;20029;-65
2022/08/30 03:13:06;;;;;;;3.78;1.17;;;;;;;;;;5052422;28;20029;-66
2022/08/30 03:15:33;;;;;;;3.00;1.20;;;;;;;;;;5053720;28;20360;-67
2022/08/30 03:17:58;;;;;;;3.88;1.20;;;;;;;;;;5053219;28;20076;-67
2022/08/30 03:20:24;;;;;;;4.82;1.50;;;;;;;;;;5053601;28;20451;-65
2022/08/30 03:22:50;;;;;;;2.80;1.00;;;;;;;;;;5053528;28;20037;-68
2022/08/30 03:25:17;;;;;;;3.40;1.20;;;;;;;;;;5053464;28;20488;-66
2022/08/30 03:27:42;;;;;;;1.63;1.00;;;;;;;;;;5053602;28;20036;-67
2022/08/30 03:30:08;;;;;;;2.22;1.20;;;;;;;;;;5053517;28;20032;-66
2022/08/30 03:32:34;;;;;;;3.83;0.93;;;;;;;;;;5051888;28;20950;-67
2022/08/30 03:35:00;;;;;;;4.25;1.33;;;;;;;;;;5053315;28;20033;-69
2022/08/30 03:37:26;;;;;;;2.95;1.00;;;;;;;;;;5053335;28;20036;-65
2022/08/30 03:39:53;;;;;;;6.03;2.90;;;;;;;;;;5053053;28;20043;-72
2022/08/30 03:42:18;;;;;;;2.13;1.50;;;;;;;;;;5052745;28;20063;-69
2022/08/30 03:44:44;;;;;;;3.15;1.95;;;;;;;;;;5053010;28;20472;-69
2022/08/30 03:47:10;;;;;;;3.53;2.03;;;;;;;;;;5052973;28;20387;-65
2022/08/30 03:49:35;;;;;;;4.38;2.50;;;;;;;;;;5053155;28;20017;-65
2022/08/30 03:52:02;;;;;;;4.65;2.60;;;;;;;;;;5053262;28;20468;-72
2022/08/30 03:54:27;;;;;;;3.85;2.40;;;;;;;;;;5052951;28;20033;-69
2022/08/30 03:56:53;;;;;;;3.17;2.42;;;;;;;;;;5053073;28;20029;-65
2022/08/30 03:59:18;;;;;;;5.93;2.47;;;;;;;;;;5053050;28;20020;-65
2022/08/30 04:01:44;;;;;;;5.50;2.67;;;;;;;;;;5052598;28;20032;-72
2022/08/30 04:04:10;;;;;;;4.50;2.53;;;;;;;;;;5052811;28;20352;-71
2022/08/30 04:06:36;;;;;;;4.07;2.30;;;;;;;;;;5052794;28;20029;-71
2022/08/30 04:09:02;;;;;;;3.30;2.53;;;;;;;;;;5052879;28;20100;-69
2022/08/30 04:11:28;;;;;;;5.57;2.80;;;;;;;;;;5052814;28;20082;-72
2022/08/30 04:13:55;;;;;;;4.72;2.55;;;;;;;;;;5052643;28;20017;-67
2022/08/30 04:16:21;;;;;;;7.90;2.92;;;;;;;;;;5052524;28;20434;-70
2022/08/30 04:18:47;;;;;;;5.55;3.00;;;;;;;;;;5052852;28;20436;-70
2022/08/30 04:21:12;;;;;;;4.72;2.30;;;;;;;;;;5052638;28;20028;-67
2022/08/30 04:23:38;;;;;;;5.80;2.00;;;;;;;;;;5052582;28;20395;-71
2022/08/30 04:26:04;;;;;;;2.05;1.20;;;;;;;;;;5052899;28;20361;-71
2022/08/30 04:28:29;;;;;;;1.75;1.13;;;;;;;;;;5052283;28;20109;-71
2022/08/30 04:30:55;;;;;;;1.98;1.30;;;;;;;;;;5052292;28;20075;-69
2022/08/30 04:33:21;;;;;;;1.60;1.20;;;;;;;;;;5052550;28;20029;-72
2022/08/30 04:35:48;;;;;;;8.80;1.50;;;;;;;;;;5052431;28;20112;-72
2022/08/30 04:38:15;;;;;;;2.95;1.52;;;;;;;;;;5052456;28;20021;-70
2022/08/30 04:40:43;;;;;;;3.30;1.40;;;;;;;;;;5052443;28;20025;-69
2022/08/30 04:43:08;;;;;;;2.90;1.50;;;;;;;;;;5051823;28;20506;-67
2022/08/30 04:45:36;;;;;;;4.93;2.95;;;;;;;;;;5052128;28;20113;-66
2022/08/30 04:48:02;;;;;;;3.83;2.03;;;;;;;;;;5052318;28;20021;-71
2022/08/30 04:50:27;;;;;;;6.50;1.95;;;;;;;;;;5052246;28;20029;-70
2022/08/30 04:52:52;;;;;;;4.35;2.25;;;;;;;;;;5052291;28;20036;-69
2022/08/30 04:55:18;;;;;;;2.95;1.65;;;;;;;;;;5052349;28;20025;-68
2022/08/30 04:57:44;;;;;;;2.92;1.70;;;;;;;;;;5052376;28;20464;-71
2022/08/30 05:00:12;;;;;;;4.15;1.40;;;;;;;;;;5052169;28;20022;-71
2022/08/30 05:02:40;;;;;;;4.00;1.70;;;;;;;;;;5052344;28;20059;-71
2022/08/30 05:07:50;;;;;;;3.17;1.30;;;;;;;;;;5052506;28;20583;-66
2022/08/30 05:10:16;;;;;;;4.13;1.65;;;;;;;;;;5052257;28;20053;-71
2022/08/30 05:12:42;;;;;;;2.47;1.88;;;;;;;;;;5052074;28;20298;-68
2022/08/30 05:15:09;;;;;;;4.97;2.85;;;;;;;;;;5051735;28;20036;-70
2022/08/30 05:17:37;;;;;;;8.05;4.50;;;;;;;;;;5052126;28;20040;-70
2022/08/30 05:20:04;;;;;;;8.02;4.63;;;;;;;;;;5052000;28;20025;-63
2022/08/30 05:22:29;;;;;;;10.05;7.30;;;;;;;;;;5051794;28;20037;-64
2022/08/30 05:24:55;;;;;;;6.82;4.38;;;;;;;;;;5052105;28;20047;-71
2022/08/30 05:27:20;;;;;;;6.80;4.15;;;;;;;;;;5053609;28;20024;-65
2022/08/30 05:29:45;;;;;;;7.22;3.67;;;;;;;;;;5055469;28;20028;-71
2022/08/30 05:32:11;;;;;;;5.20;3.58;;;;;;;;;;5055623;28;20025;-67
2022/08/30 05:34:36;;;;;;;7.32;3.70;;;;;;;;;;5055513;28;20376;-68
2022/08/30 05:37:02;;;;;;;6.70;3.80;;;;;;;;;;5055656;28;20135;-64
2022/08/30 05:39:28;;;;;;;6.22;3.53;;;;;;;;;;5055597;28;20033;-70
2022/08/30 05:41:56;;;;;;;7.10;3.45;;;;;;;;;;5055239;28;20051;-69
2022/08/30 05:44:21;;;;;;;11.55;3.78;;;;;;;;;;5054857;28;20044;-70
2022/08/30 05:46:48;;;;;;;10.35;3.42;;;;;;;;;;5055337;28;20086;-66
2022/08/30 05:49:14;;;;;;;4.57;3.20;;;;;;;;;;5055355;28;20578;-68
2022/08/30 05:51:39;;;;;;;5.65;3.60;;;;;;;;;;5055215;28;20024;-70
2022/08/30 05:54:06;;;;;;;7.50;3.47;;;;;;;;;;5055248;28;20087;-71
2022/08/30 05:56:35;;;;;;;7.15;2.92;;;;;;;;;;5055057;28;20028;-68
2022/08/30 05:59:03;;;;;;;4.65;2.85;;;;;;;;;;5055096;28;20033;-68
2022/08/30 06:01:36;;;;;;;7.15;2.85;;;;;;;;;;5055203;28;20025;-65
2022/08/30 06:04:04;;;;;;;4.90;3.15;;;;;;;;;;5055050;28;20040;-69
2022/08/30 06:06:31;;;;;;;7.85;2.90;;;;;;;;;;5054987;28;20078;-71
2022/08/30 06:08:57;;;;;;;5.70;2.80;;;;;;;;;;5054952;28;20040;-69
2022/08/30 06:11:24;;;;;;;7.60;2.72;;;;;;;;;;5054691;28;20463;-70
2022/08/30 06:13:51;;;;;;;4.32;2.40;;;;;;;;;;5054803;28;20029;-65
2022/08/30 06:16:19;;;;;;;5.88;2.00;;;;;;;;;;5054369;28;20108;-70
2022/08/30 06:18:45;;;;;;;3.33;1.88;;;;;;;;;;5054730;28;20021;-70
2022/08/30 06:21:16;;;;;;;4.88;1.45;;;;;;;;;;5054638;28;20400;-67
2022/08/30 06:23:43;;;;;;;4.78;1.92;;;;;;;;;;5054455;28;20112;-64
2022/08/30 06:26:09;;;;;;;6.38;1.75;;;;;;;;;;5054512;28;20021;-68
2022/08/30 06:28:35;;;;;;;3.45;1.75;;;;;;;;;;5054549;28;20159;-71
2022/08/30 06:31:00;;;;;;;7.32;1.98;;;;;;;;;;5054404;28;20032;-69
2022/08/30 06:33:26;;;;;;;4.00;1.80;;;;;;;;;;5054431;28;20468;-69
2022/08/30 06:35:51;;;;;;;3.92;1.70;;;;;;;;;;5054360;28;20016;-67
2022/08/30 06:38:17;;;;;;;3.72;1.70;;;;;;;;;;5053473;28;20029;-67
2022/08/30 06:40:42;;;;;;;11.45;2.90;;;;;;;;;;5054141;28;20025;-64
2022/08/30 06:43:08;;;;;;;9.13;2.88;;;;;;;;;;5053768;28;20507;-64
2022/08/30 06:45:34;;;;;;;8.75;3.92;;;;;;;;;;5048755;28;20029;-68
2022/08/30 06:48:00;;;;;;;15.77;3.22;;;;;;;;;;5033632;28;20079;-64
2022/08/30 06:50:26;;;;;;;7.93;3.22;;;;;;;;;;5023861;28;20467;-69
2022/08/30 06:52:52;;;;;;;5.85;3.05;;;;;;;;;;5023230;28;20040;-67
2022/08/30 06:55:18;;;;;;;5.40;3.38;;;;;;;;;;5028307;28;20057;-70
2022/08/30 06:57:45;;;;;;;6.20;3.00;;;;;;;;;;5029904;28;20033;-64
2022/08/30 07:00:14;;;;;;;5.55;3.00;;;;;;;;;;5032034;28;20032;-69
2022/08/30 07:02:41;;;;;;;7.38;3.50;;;;;;;;;;5033600;28;20033;-70
2022/08/30 07:05:10;;;;;;;7.20;3.70;;;;;;;;;;5031931;28;20635;-64
2022/08/30 07:07:36;;;;;;;10.40;4.57;;;;;;;;;;5033143;28;20036;-69
2022/08/30 07:10:04;;;;;;;6.97;3.30;;;;;;;;;;5033265;28;20112;-70
2022/08/30 07:12:30;;;;;;;8.65;3.40;;;;;;;;;;5033345;28;20044;-70
2022/08/30 07:14:55;;;;;;;7.38;3.08;;;;;;;;;;5033362;28;20021;-67
2022/08/30 07:20:06;;;;;;;8.48;3.50;;;;;;;;;;5033511;28;20082;-67
2022/08/30 07:22:32;;;;;;;9.50;3.85;;;;;;;;;;5033183;28;20033;-69
2022/08/30 07:24:58;;;;;;;10.20;4.30;;;;;;;;;;5032460;28;20061;-66
2022/08/30 07:27:23;;;;;;;5.72;3.58;;;;;;;;;;5033276;28;20060;-67
2022/08/30 07:29:49;;;;;;;15.68;5.78;;;;;;;;;;5033070;28;20584;-69
2022/08/30 07:32:15;;;;;;;21.55;19.35;;;;;;;;;;5033046;28;20456;-64
2022/08/30 07:34:40;;;;;;;5.40;4.30;;;;;;;;;;5032595;28;20029;-66
2022/08/30 07:37:06;;;;;;;8.23;5.40;;;;;;;;;;5032737;28;20045;-71
2022/08/30 07:39:31;;;;;;;7.18;4.30;;;;;;;;;;5032725;28;20040;-70
2022/08/30 07:41:57;;;;;;;13.35;6.07;;;;;;;;;;5032647;28;20088;-70
2022/08/30 07:44:22;;;;;;;10.25;9.20;;;;;;;;;;5050072;28;20037;-65
2022/08/30 07:46:48;;;;;;;9.27;6.88;;;;;;;;;;5053062;28;20025;-66
2022/08/30 07:49:13;;;;;;;9.80;4.22;;;;;;;;;;5052291;28;20049;-70
2022/08/30 07:51:39;;;;;;;12.10;3.83;;;;;;;;;;5052503;28;20380;-70
2022/08/30 07:54:05;;;;;;;9.13;3.60;;;;;;;;;;5052409;28;20033;-65
2022/08/30 07:56:31;;;;;;;10.25;4.57;;;;;;;;;;5052390;28;20033;-69
2022/08/30 07:58:56;;;;;;;9.52;4.45;;;;;;;;;;5052301;28;20035;-67
2022/08/30 08:01:22;;;;;;;7.03;3.17;;;;;;;;;;5052228;28;20028;-66
2022/08/30 08:03:49;;;;;;;7.60;3.50;;;;;;;;;;5052298;28;20036;-69
2022/08/30 08:06:16;;;;;;;8.23;3.33;;;;;;;;;;5052342;28;20021;-64
2022/08/30 08:08:44;;;;;;;7.25;3.55;;;;;;;;;;5052179;28;20044;-69
2022/08/30 08:11:17;;;;;;;5.88;3.30;;;;;;;;;;5052188;28;20021;-68
2022/08/30 08:13:45;;;;;;;7.47;3.17;;;;;;;;;;5052381;28;20021;-68
2022/08/30 08:16:10;;;;;;;8.00;3.50;;;;;;;;;;5052390;28;20550;-69
2022/08/30 08:18:36;;;;;;;10.65;3.92;;;;;;;;;;5052301;28;20057;-68
2022/08/30 08:21:02;;;;;;;5.78;3.50;;;;;;;;;;5052156;28;20383;-68
2022/08/30 08:23:28;;;;;;;11.32;3.08;;;;;;;;;;5051926;28;20360;-69
2022/08/30 08:25:53;;;;;;;6.97;3.30;;;;;;;;;;5052078;28;20098;-68
2022/08/30 08:28:19;;;;;;;6.18;3.25;;;;;;;;;;5051778;28;20017;-65
2022/08/30 08:30:45;;;;;;;7.97;4.03;;;;;;;;;;5052081;28;20051;-65
2022/08/30 08:33:12;;;;;;;5.40;3.28;;;;;;;;;;5052204;28;20056;-70
2022/08/30 08:35:37;;;;;;;5.63;2.97;;;;;;;;;;5052055;28;20033;-64
2022/08/30 08:38:03;;;;;;;7.13;2.70;;;;;;;;;;5051802;28;20028;-65
2022/08/30 08:40:38;;;;;;;3.20;2.00;;;;;;;;;;5052139;28;20027;-67
2022/08/30 08:43:14;;;;;;;3.08;1.70;;;;;;;;;;5038071;28;20457;-64
2022/08/30 08:45:50;;;;;;;4.57;2.30;;;;;;;;;;5012473;28;20026;-65
2022/08/30 08:48:22;;;;;;;4.32;1.80;;;;;;;;;;5012296;28;20030;-66
2022/08/30 08:53:35;;;;;;;6.65;2.45;;;;;;;;;;5027913;28;20091;-69
2022/08/30 08:56:11;;;;;;;7.00;1.97;;;;;;;;;;5032155;28;20523;-64
2022/08/30 08:58:46;;;;;;;4.43;2.22;;;;;;;;;;5032060;28;20029;-70
2022/08/30 09:01:15;;;;;;;3.83;2.20;;;;;;;;;;5031917;28;20033;-70
2022/08/30 09:03:41;;;;;;;3.83;1.90;;;;;;;;;;5034986;28;20396;-66
2022/08/30 09:06:19;;;;;;;5.90;1.88;;;;;;;;;;5035536;28;20400;-65
2022/08/30 09:08:44;;;;;;;3.78;1.70;;;;;;;;;;5035884;28;20021;-71
2022/08/30 09:11:17;;;;;;;4.55;2.47;;;;;;;;;;5035632;28;20455;-70
2022/08/30 09:13:42;;;;;;;3.55;1.85;;;;;;;;;;5035820;28;20108;-68
2022/08/30 09:16:08;;;;;;;4.50;1.65;;;;;;;;;;5035798;28;20108;-70
2022/08/30 09:18:42;;;;;;;3.85;1.73;;;;;;;;;;5035761;28;20095;-67
2022/08/30 09:21:08;;;;;;;2.35;1.48;;;;;;;;;;5035339;28;20412;-69
2022/08/30 09:23:33;;;;;;;2.20;1.40;;;;;;;;;;5035464;28;20026;-69
2022/08/30 09:26:02;;;;;;;2.97;1.40;;;;;;;;;;5035568;28;20025;-66
2022/08/30 09:28:47;;;;;;;3.72;1.70;;;;;;;;;;5035452;28;20040;-66
2022/08/30 09:31:23;;;;;;;2.85;1.40;;;;;;;;;;5035464;28;20022;-67
2022/08/30 09:34:05;;;;;;;6.95;1.35;;;;;;;;;;5035442;28;20087;-68
2022/08/30 09:36:43;;;;;;;3.97;1.75;;;;;;;;;;5034089;28;20392;-70
2022/08/30 09:39:29;;;;;;;4.57;1.50;;;;;;;;;;5035189;28;20021;-70
2022/08/30 09:42:11;;;;;;;3.88;1.48;;;;;;;;;;5035115;28;20041;-70
2022/08/30 09:44:37;;;;;;;3.45;1.65;;;;;;;;;;5054524;28;20432;-70
2022/08/30 09:47:05;;;;;;;2.92;1.30;;;;;;;;;;5054943;28;20108;-64
2022/08/30 09:49:38;;;;;;;4.78;1.40;;;;;;;;;;5054766;28;20029;-68
2022/08/30 09:52:22;;;;;;;3.90;1.63;;;;;;;;;;5055041;28;20032;-64
2022/08/30 09:55:19;;;;;;;2.70;1.50;;;;;;;;;;5054811;28;20035;-68
2022/08/30 09:58:03;;;;;;;2.85;1.40;;;;;;;;;;4977025;28;20034;-67
2022/08/30 10:00:34;;;;;;;3.72;1.70;;;;;;;;;;4993411;28;20034;-70
2022/08/30 10:03:24;;;;;;;1.60;1.23;;;;;;;;;;4993194;28;20036;-65
2022/08/30 10:05:54;;;;;;;2.83;1.40;;;;;;;;;;4993658;28;20312;-68
2022/08/30 10:08:29;;;;;;;5.15;1.83;;;;;;;;;;4993317;28;20511;-64
2022/08/30 10:11:00;;;;;;;3.65;1.70;;;;;;;;;;4993056;28;20030;-64
2022/08/30 10:13:31;;;;;;;5.00;1.63;;;;;;;;;;4993107;28;20527;-69
2022/08/30 10:16:21;;;;;;;2.15;1.30;;;;;;;;;;4993116;28;20125;-71
2022/08/30 10:19:08;;;;;;;3.17;1.30;;;;;;;;;;4992464;28;20050;-68
2022/08/30 10:21:46;;;;;;;2.95;1.30;;;;;;;;;;4993055;28;20042;-70
2022/08/30 10:24:18;;;;;;;2.67;1.27;;;;;;;;;;4992976;28;20034;-70
2022/08/30 10:26:56;;;;;;;2.17;1.30;;;;;;;;;;4992416;28;20049;-68
2022/08/30 10:29:30;;;;;;;3.88;1.65;;;;;;;;;;4992729;28;20144;-70
2022/08/30 10:32:05;;;;;;;7.80;1.67;;;;;;;;;;4981504;28;20062;-70
2022/08/30 10:34:36;;;;;;;4.38;1.70;;;;;;;;;;5032995;28;20100;-70
2022/08/30 10:37:16;;;;;;;4.43;1.42;;;;;;;;;;5032894;28;20057;-67
2022/08/30 10:39:47;;;;;;;4.72;1.83;;;;;;;;;;5034151;28;20029;-65
2022/08/30 10:42:30;;;;;;;5.45;1.30;;;;;;;;;;5033905;28;20396;-68
2022/08/30 10:45:03;;;;;;;3.20;1.30;;;;;;;;;;5014168;28;20041;-71
2022/08/30 10:47:42;;;;;;;3.28;1.55;;;;;;;;;;5013880;28;20376;-68
2022/08/30 10:50:17;;;;;;;5.20;1.23;;;;;;;;;;5014487;28;20033;-67
2022/08/30 10:53:06;;;;;;;5.32;1.30;;;;;;;;;;5014644;28;20033;-65
2022/08/30 10:55:44;;;;;;;6.10;3.30;;;;;;;;;;5029562;28;20484;-67
2022/08/30 10:58:10;;;;;;;2.65;1.40;;;;;;;;;;5033885;28;20029;-67
2022/08/30 11:00:57;;;;;;;2.38;1.40;;;;;;;;;;5032332;28;20434;-66
2022/08/30 11:03:22;;;;;;;7.70;1.70;;;;;;;;;;5033312;28;20034;-65
2022/08/30 11:06:09;;;;;;;3.75;1.33;;;;;;;;;;5033630;28;20037;-64
2022/08/30 11:08:41;;;;;;;2.42;1.30;;;;;;;;;;5033563;28;20048;-65
2022/08/30 11:11:48;;;;;;;5.32;1.48;;;;;;;;;;5033327;28;20064;-65
2022/08/30 11:14:17;;;;;;;3.72;1.50;;;;;;;;;;5033436;28;20037;-64
2022/08/30 11:16:46;;;;;;;6.32;1.40;;;;;;;;;;5032988;28;20033;-65
2022/08/30 11:19:47;;;;;;;6.38;1.45;;;;;;;;;;5029858;28;20041;-64
2022/08/30 11:22:24;;;;;;;2.95;1.50;;;;;;;;;;4972236;28;20027;-68
2022/08/30 11:25:15;;;;;;;7.80;1.40;;;;;;;;;;4971732;28;20529;-69
2022/08/30 11:27:46;;;;;;;2.30;1.20;;;;;;;;;;4972348;28;20039;-66
2022/08/30 11:30:23;;;;;;;4.90;1.50;;;;;;;;;;4972079;28;20093;-64
2022/08/30 11:33:24;;;;;;;2.95;1.20;;;;;;;;;;4972196;28;20034;-65
2022/08/30 11:35:52;;;;;;;3.17;1.20;;;;;;;;;;4971927;28;20046;-63
2022/08/30 11:38:29;;;;;;;3.28;1.20;;;;;;;;;;4972001;28;20113;-67
2022/08/30 11:40:55;;;;;;;6.72;1.30;;;;;;;;;;4971892;28;20031;-65
2022/08/30 11:43:35;;;;;;;4.50;1.20;;;;;;;;;;4962844;28;20074;-66
2022/08/30 11:46:15;;;;;;;5.00;1.20;;;;;;;;;;4952204;29;20031;-64
2022/08/30 11:48:50;;;;;;;5.63;1.30;;;;;;;;;;4952414;29;20490;-66
2022/08/30 11:51:22;;;;;;;5.07;1.60;;;;;;;;;;4952710;29;20114;-66
2022/08/30 11:53:58;;;;;;;4.57;1.73;;;;;;;;;;4952564;29;20027;-64
2022/08/30 11:56:53;;;;;;;3.10;1.48;;;;;;;;;;4987993;28;20045;-64
2022/08/30 11:59:24;;;;;;;5.00;1.55;;;;;;;;;;5006034;28;20061;-64
2022/08/30 12:01:50;;;;;;;3.22;1.33;;;;;;;;;;5012464;28;20029;-66
2022/08/30 12:04:15;;;;;;;3.10;1.10;;;;;;;;;;5012839;28;20049;-66
2022/08/30 12:06:41;;;;;;;2.60;1.00;;;;;;;;;;5012893;28;20100;-65
2022/08/30 12:09:29;;;;;;;15.25;1.90;;;;;;;;;;5012890;28;20030;-64
2022/08/30 12:12:09;;;;;;;4.03;1.20;;;;;;;;;;4952779;29;20074;-64
2022/08/30 12:14:53;;;;;;;3.70;1.73;;;;;;;;;;4952307;29;20043;-65
2022/08/30 12:20:24;;;;;;;3.05;1.48;;;;;;;;;;4952310;28;20077;-70
2022/08/30 12:22:52;;;;;;;2.75;1.02;;;;;;;;;;4951939;28;20388;-69
2022/08/30 12:25:29;;;;;;;4.10;1.42;;;;;;;;;;4951772;29;20501;-66
2022/08/30 12:28:15;;;;;;;1.70;1.10;;;;;;;;;;4952196;29;20398;-67
2022/08/30 12:30:41;;;;;;;3.03;1.17;;;;;;;;;;4951919;29;20031;-70
2022/08/30 12:33:11;;;;;;;2.55;1.25;;;;;;;;;;4952068;29;20034;-64
2022/08/30 12:35:39;;;;;;;4.80;1.52;;;;;;;;;;4952038;28;20042;-70
2022/08/30 12:38:12;;;;;;;4.70;1.70;;;;;;;;;;4954642;29;20031;-64
2022/08/30 12:40:48;;;;;;;4.32;1.60;;;;;;;;;;4961897;28;20444;-70
2022/08/30 12:43:31;;;;;;;3.45;1.70;;;;;;;;;;4974352;28;20141;-70
2022/08/30 12:46:02;;;;;;;3.08;1.25;;;;;;;;;;4975063;28;20106;-69
2022/08/30 12:48:28;;;;;;;4.30;1.40;;;;;;;;;;4994513;28;20061;-66
2022/08/30 12:50:57;;;;;;;3.53;1.30;;;;;;;;;;5035850;28;20430;-70
2022/08/30 12:53:27;;;;;;;1.92;0.93;;;;;;;;;;5036318;28;20472;-71
2022/08/30 12:56:11;;;;;;;5.97;1.17;;;;;;;;;;5036003;28;20121;-71
2022/08/30 12:58:37;;;;;;;3.80;1.10;;;;;;;;;;5035910;28;20029;-66
2022/08/30 13:01:23;;;;;;;1.55;0.90;;;;;;;;;;5035881;28;20414;-69
2022/08/30 13:03:59;;;;;;;3.45;1.00;;;;;;;;;;5035879;28;20025;-66
2022/08/30 13:06:47;;;;;;;0.82;0.60;;;;;;;;;;5035897;28;20427;-67
2022/08/30 13:09:28;;;;;;;4.15;0.82;;;;;;;;;;5035759;28;20388;-69
2022/08/30 13:11:54;;;;;;;1.30;0.70;;;;;;;;;;5035507;28;20030;-69
2022/08/30 13:14:42;;;;;;;1.67;0.82;;;;;;;;;;5035638;28;20100;-64
2022/08/30 13:17:26;;;;;;;3.55;1.45;;;;;;;;;;5035635;28;20044;-64
2022/08/30 13:20:20;;;;;;;4.07;1.23;;;;;;;;;;5035494;28;20025;-67
2022/08/30 13:23:03;;;;;;;3.75;1.67;;;;;;;;;;5035454;28;20434;-70
2022/08/30 13:25:29;;;;;;;5.60;1.23;;;;;;;;;;5035544;28;20109;-70
2022/08/30 13:27:55;;;;;;;6.45;1.35;;;;;;;;;;5035105;28;20033;-68
2022/08/30 13:30:20;;;;;;;2.25;1.10;;;;;;;;;;5035309;28;20103;-70
2022/08/30 13:32:46;;;;;;;3.22;1.40;;;;;;;;;;5035052;28;20033;-65
2022/08/30 13:35:11;;;;;;;1.92;0.90;;;;;;;;;;5035256;28;20472;-70
2022/08/30 13:37:40;;;;;;;2.58;1.00;;;;;;;;;;5035207;28;20025;-65
2022/08/30 13:40:07;;;;;;;3.40;0.90;;;;;;;;;;5034996;28;20140;-64
2022/08/30 13:42:33;;;;;;;2.10;0.80;;;;;;;;;;5036854;28;20052;-70
2022/08/30 13:44:58;;;;;;;1.75;0.90;;;;;;;;;;5054658;28;20033;-70
2022/08/30 13:47:24;;;;;;;2.78;0.90;;;;;;;;;;5054528;28;20025;-66
2022/08/30 13:49:49;;;;;;;3.13;0.77;;;;;;;;;;5055065;28;20021;-69
2022/08/30 13:52:18;;;;;;;1.98;0.90;;;;;;;;;;5054946;28;20028;-67
2022/08/30 13:54:45;;;;;;;3.35;1.05;;;;;;;;;;5054733;28;20033;-65
2022/08/30 13:57:10;;;;;;;2.53;0.90;;;;;;;;;;5054534;28;20064;-67
2022/08/30 13:59:36;;;;;;;1.67;0.88;;;;;;;;;;5054811;28;20059;-70
2022/08/30 14:02:01;;;;;;;4.07;0.95;;;;;;;;;;5054634;28;20028;-66
2022/08/30 14:04:27;;;;;;;3.22;0.70;;;;;;;;;;5054427;28;20021;-70
2022/08/30 14:06:53;;;;;;;6.80;0.90;;;;;;;;;;5054466;28;20025;-66
2022/08/30 14:09:19;;;;;;;2.35;0.90;;;;;;;;;;5054507;28;20476;-70
2022/08/30 14:11:44;;;;;;;3.63;1.25;;;;;;;;;;5054401;28;20078;-65
2022/08/30 14:14:10;;;;;;;3.22;1.10;;;;;;;;;;5054090;28;20032;-65
2022/08/30 14:16:41;;;;;;;4.65;1.00;;;;;;;;;;5054217;28;20033;-70
2022/08/30 14:19:08;;;;;;;2.03;0.93;;;;;;;;;;5054382;28;20073;-68
2022/08/30 14:21:34;;;;;;;5.25;0.90;;;;;;;;;;5052631;28;20361;-65
2022/08/30 14:24:00;;;;;;;3.67;1.13;;;;;;;;;;5054285;28;20025;-65
2022/08/30 14:26:29;;;;;;;3.70;0.98;;;;;;;;;;5054199;28;20500;-69
2022/08/30 14:28:55;;;;;;;2.17;0.80;;;;;;;;;;5054169;28;20498;-67
2022/08/30 14:31:20;;;;;;;4.50;1.00;;;;;;;;;;5052076;28;20021;-69
2022/08/30 14:33:47;;;;;;;3.40;0.80;;;;;;;;;;5054183;28;20028;-64
2022/08/30 14:36:12;;;;;;;2.90;0.90;;;;;;;;;;5054342;28;20147;-71
2022/08/30 14:38:38;;;;;;;2.13;1.02;;;;;;;;;;5053823;28;20114;-64
2022/08/30 14:41:05;;;;;;;1.38;0.80;;;;;;;;;;5053938;28;20446;-70
2022/08/30 14:43:30;;;;;;;1.95;1.00;;;;;;;;;;5053589;28;20041;-70
2022/08/30 14:45:59;;;;;;;2.15;0.90;;;;;;;;;;5053824;28;20027;-67
2022/08/30 14:48:25;;;;;;;2.75;0.80;;;;;;;;;;5053889;28;20035;-68
2022/08/30 14:50:50;;;;;;;3.03;0.95;;;;;;;;;;5053757;28;20434;-66
2022/08/30 14:53:16;;;;;;;2.40;0.90;;;;;;;;;;5053596;28;20024;-69
2022/08/30 14:55:41;;;;;;;3.53;1.00;;;;;;;;;;5053862;28;20468;-65
2022/08/30 14:58:09;;;;;;;1.67;0.98;;;;;;;;;;5053578;28;20060;-70
2022/08/30 15:00:35;;;;;;;4.32;0.90;;;;;;;;;;5052568;28;20031;-64
2022/08/30 15:03:00;;;;;;;4.13;1.08;;;;;;;;;;5053233;28;20037;-67
2022/08/30 15:05:26;;;;;;;3.55;0.98;;;;;;;;;;5053466;28;20031;-70